Time;durP1;ratioP1;P1;durP2;ratioP2;P2;SDS_P1;SDS_P2;PMS_P1;PMS_P2;Temp;Humidity;BMP_temperature;BMP_pressure;BME280_temperature;BME280_humidity;BME280_pressure;Samples;Min_cycle;Max_cycle;Signal;HPM_P1;HPM_P2
2022/02/04 00:09:19;;;;;;;22.38;14.32;;;7.00;99.90;;;;;;6152730;23;20092;-82
2022/02/04 00:21:20;;;;;;;18.95;12.95;;;7.00;99.90;;;;;;6152702;23;20379;-82
2022/02/04 00:23:10;;;;;;;22.10;14.63;;;7.00;99.90;;;;;;6133308;23;20017;-84
2022/02/04 00:26:22;;;;;;;22.40;13.52;;;7.00;99.90;;;;;;6127668;23;20009;-83
2022/02/04 00:33:48;;;;;;;15.55;10.85;;;7.00;99.90;;;;;;6118658;23;20088;-84
2022/02/04 00:36:21;;;;;;;12.82;8.70;;;7.00;99.90;;;;;;6128104;23;20085;-81
2022/02/04 00:38:51;;;;;;;12.27;8.27;;;7.00;99.90;;;;;;6127828;23;20016;-82
2022/02/04 00:41:21;;;;;;;15.48;10.30;;;7.00;99.90;;;;;;6104890;23;20084;-82
2022/02/04 00:43:49;;;;;;;20.70;12.68;;;7.00;99.90;;;;;;6126804;23;20442;-84
2022/02/04 00:46:27;;;;;;;18.90;12.95;;;7.00;99.90;;;;;;6152509;23;20014;-83
2022/02/04 00:57:07;;;;;;;17.63;11.93;;;7.00;99.90;;;;;;6121760;23;20442;-86
2022/02/04 01:13:26;;;;;;;11.07;8.13;;;7.00;99.90;;;;;;6152149;23;20366;-84
2022/02/04 01:26:49;;;;;;;22.05;14.20;;;7.00;99.90;;;;;;6151269;23;20443;-85
2022/02/04 01:29:15;;;;;;;19.00;12.20;;;7.00;99.90;;;;;;6151984;23;20063;-83
2022/02/04 01:31:41;;;;;;;18.38;11.50;;;7.00;99.90;;;;;;6127676;23;20092;-83
2022/02/04 01:34:07;;;;;;;23.00;15.05;;;7.00;99.90;;;;;;6127953;23;20040;-85
2022/02/04 01:36:32;;;;;;;16.80;11.77;;;7.00;99.90;;;;;;6127391;23;20006;-83
2022/02/04 01:38:58;;;;;;;19.95;12.18;;;7.00;99.90;;;;;;6127255;23;20018;-84
2022/02/04 01:41:24;;;;;;;20.38;12.25;;;7.00;99.90;;;;;;6127496;23;20036;-82
2022/02/04 01:43:50;;;;;;;18.25;11.55;;;7.00;99.90;;;;;;6126937;23;20010;-83
2022/02/04 01:46:16;;;;;;;17.50;11.63;;;7.00;99.90;;;;;;6127396;23;20052;-83
2022/02/04 01:48:42;;;;;;;14.85;10.23;;;7.00;99.90;;;;;;6103095;23;20017;-83
2022/02/04 01:51:13;;;;;;;15.85;11.43;;;7.00;99.90;;;;;;6127399;23;20010;-84
2022/02/04 01:53:39;;;;;;;19.02;12.00;;;7.10;99.90;;;;;;6127411;23;20441;-86
2022/02/04 01:56:07;;;;;;;16.10;9.60;;;7.00;99.90;;;;;;6126756;23;20021;-83
2022/02/04 01:58:34;;;;;;;16.60;11.10;;;7.00;99.90;;;;;;6127228;23;20015;-82
2022/02/04 02:01:00;;;;;;;18.40;12.85;;;7.00;99.90;;;;;;6127415;23;20028;-83
2022/02/04 02:03:25;;;;;;;18.00;11.13;;;7.00;99.90;;;;;;6127092;23;20002;-83
2022/02/04 02:05:53;;;;;;;16.77;11.38;;;7.00;99.90;;;;;;6151646;23;20013;-83
2022/02/04 02:08:20;;;;;;;16.10;9.80;;;7.00;99.90;;;;;;6152540;23;20079;-84
2022/02/04 02:10:47;;;;;;;14.05;8.90;;;7.00;99.90;;;;;;6126460;23;20052;-83
2022/02/04 02:35:20;;;;;;;15.00;9.38;;;7.00;99.90;;;;;;6151711;23;20447;-83
2022/02/04 02:41:23;;;;;;;12.13;7.68;;;7.00;99.90;;;;;;6151174;23;20013;-84
2022/02/04 02:48:57;;;;;;;11.35;7.10;;;7.00;99.90;;;;;;6151175;23;20447;-82
2022/02/04 02:59:31;;;;;;;14.80;9.90;;;7.00;99.90;;;;;;6151467;23;20045;-83
2022/02/04 03:01:57;;;;;;;13.55;8.25;;;7.00;99.90;;;;;;6151714;23;20010;-84
2022/02/04 03:04:22;;;;;;;13.13;8.15;;;7.00;99.90;;;;;;6127013;23;20009;-83
2022/02/04 03:06:48;;;;;;;14.27;8.70;;;7.00;99.90;;;;;;6126454;23;20550;-83
2022/02/04 03:09:15;;;;;;;13.45;7.97;;;7.00;99.90;;;;;;6126697;23;20084;-83
2022/02/04 03:11:41;;;;;;;11.88;7.70;;;7.00;99.90;;;;;;6126753;23;20092;-83
2022/02/04 03:14:07;;;;;;;11.90;7.63;;;7.00;99.90;;;;;;6126915;23;20040;-83
2022/02/04 03:16:34;;;;;;;13.93;8.10;;;7.00;99.90;;;;;;6126692;23;20112;-85
2022/02/04 03:19:01;;;;;;;13.05;8.23;;;7.00;99.90;;;;;;6151418;23;20005;-84
2022/02/04 03:21:43;;;;;;;11.43;7.90;;;7.00;99.90;;;;;;6126407;23;20327;-83
2022/02/04 03:24:13;;;;;;;13.45;7.88;;;7.00;99.90;;;;;;6127403;23;20013;-82
2022/02/04 03:29:07;;;;;;;12.35;7.32;;;6.90;99.90;;;;;;6150742;23;20006;-84
2022/02/04 03:31:40;;;;;;;12.20;7.20;;;7.00;99.90;;;;;;6126703;23;20016;-82
2022/02/04 03:34:06;;;;;;;15.02;9.45;;;7.00;99.90;;;;;;6151324;23;20002;-83
2022/02/04 03:36:31;;;;;;;12.02;6.90;;;7.00;99.90;;;;;;6126047;23;20013;-83
2022/02/04 03:38:57;;;;;;;11.15;6.03;;;6.90;99.90;;;;;;6126799;23;20006;-84
2022/02/04 03:41:23;;;;;;;11.75;6.78;;;7.00;99.90;;;;;;6128775;23;20371;-83
2022/02/04 03:43:48;;;;;;;15.60;8.07;;;6.90;99.90;;;;;;6128414;23;20100;-84
2022/02/04 03:46:14;;;;;;;11.93;7.45;;;7.00;99.90;;;;;;6128554;23;20080;-82
2022/02/04 03:48:39;;;;;;;12.32;6.72;;;7.00;99.90;;;;;;6128327;23;20096;-83
2022/02/04 03:51:05;;;;;;;10.18;6.65;;;7.00;99.90;;;;;;6127678;23;20005;-83
2022/02/04 03:53:31;;;;;;;10.20;6.30;;;7.00;99.90;;;;;;6128506;23;20025;-84
2022/02/04 03:55:56;;;;;;;8.50;5.43;;;7.00;99.90;;;;;;6128637;23;20453;-85
2022/02/04 03:58:22;;;;;;;9.40;5.43;;;7.00;99.90;;;;;;6128680;23;20013;-84
2022/02/04 04:00:48;;;;;;;8.27;4.80;;;7.00;99.90;;;;;;6127908;23;20027;-83
2022/02/04 04:03:13;;;;;;;12.30;6.57;;;7.00;99.90;;;;;;6153611;23;20002;-83
2022/02/04 04:05:42;;;;;;;10.15;6.30;;;7.00;99.90;;;;;;6128141;23;20438;-83
2022/02/04 04:08:08;;;;;;;11.18;6.32;;;7.00;99.90;;;;;;6128403;23;20010;-84
2022/02/04 04:10:39;;;;;;;9.10;5.75;;;7.00;99.90;;;;;;6152769;23;20017;-83
2022/02/04 04:13:05;;;;;;;10.23;6.18;;;7.10;99.90;;;;;;6128574;23;20027;-84
2022/02/04 04:15:31;;;;;;;9.80;5.78;;;7.00;99.90;;;;;;6127306;23;20378;-83
2022/02/04 04:17:57;;;;;;;8.73;5.28;;;7.00;99.90;;;;;;6128515;23;20060;-84
2022/02/04 04:20:25;;;;;;;6.10;3.22;;;7.00;99.90;;;;;;6152340;23;20029;-82
2022/02/04 04:22:52;;;;;;;10.10;6.00;;;7.00;99.90;;;;;;6127915;23;20122;-83
2022/02/04 04:25:18;;;;;;;12.98;7.10;;;7.00;99.90;;;;;;6128024;23;20352;-82
2022/02/04 04:27:45;;;;;;;9.63;6.15;;;7.00;99.90;;;;;;6153643;23;20069;-83
2022/02/04 04:30:13;;;;;;;9.18;5.53;;;7.10;99.90;;;;;;6128595;23;20017;-83
2022/02/04 04:32:39;;;;;;;9.98;5.93;;;7.10;99.90;;;;;;6152395;23;20016;-85
2022/02/04 04:35:06;;;;;;;9.85;5.85;;;7.10;99.90;;;;;;6152104;23;20457;-82
2022/02/04 04:37:33;;;;;;;7.82;4.85;;;7.10;99.90;;;;;;6127653;23;20013;-83
2022/02/04 04:42:59;;;;;;;7.57;5.10;;;7.10;99.90;;;;;;6154285;23;19998;-82
2022/02/04 05:26:35;;;;;;;7.03;3.97;;;7.10;99.90;;;;;;6152300;23;20017;-82
2022/02/04 05:29:10;;;;;;;6.10;3.78;;;7.10;99.90;;;;;;6127518;23;20055;-83
2022/02/04 05:31:37;;;;;;;6.00;3.75;;;7.10;99.90;;;;;;6126984;23;20010;-82
2022/02/04 05:34:03;;;;;;;7.22;3.88;;;7.10;99.90;;;;;;6126917;23;20005;-81
2022/02/04 05:36:33;;;;;;;6.72;4.10;;;7.10;99.90;;;;;;6126811;23;20014;-82
2022/02/04 05:38:58;;;;;;;6.35;3.50;;;7.00;99.90;;;;;;6126967;23;20016;-83
2022/02/04 05:41:29;;;;;;;5.90;3.25;;;7.10;99.90;;;;;;6127217;23;20145;-81
2022/02/04 05:43:58;;;;;;;6.32;3.80;;;7.10;99.90;;;;;;6127013;23;20131;-82
2022/02/04 05:46:34;;;;;;;6.22;3.95;;;7.10;99.90;;;;;;6151240;23;20013;-82
2022/02/04 05:49:01;;;;;;;6.93;4.15;;;7.10;99.90;;;;;;6127247;23;20454;-84
2022/02/04 05:51:45;;;;;;;6.03;3.75;;;7.10;99.90;;;;;;6127349;23;20089;-82
2022/02/04 05:54:18;;;;;;;7.38;4.10;;;7.00;99.90;;;;;;6126927;23;20017;-82
2022/02/04 06:01:59;;;;;;;7.38;4.18;;;7.10;99.90;;;;;;6151852;23;20095;-83
2022/02/04 06:07:23;;;;;;;7.22;3.92;;;7.00;99.90;;;;;;6151715;23;20327;-82
2022/02/04 06:10:15;;;;;;;8.50;3.60;;;7.10;99.90;;;;;;6129040;23;20084;-83
2022/02/04 06:23:12;;;;;;;6.20;3.60;;;7.10;99.90;;;;;;6152386;23;20339;-83
2022/02/04 06:25:39;;;;;;;8.02;3.25;;;7.10;99.90;;;;;;6126198;23;20404;-84
2022/02/04 06:28:05;;;;;;;5.10;3.17;;;7.10;99.90;;;;;;6153134;23;20009;-83
2022/02/04 06:30:31;;;;;;;5.15;2.63;;;7.10;99.90;;;;;;6152548;23;20013;-84
2022/02/04 06:33:00;;;;;;;4.55;1.90;;;7.10;99.90;;;;;;6153458;23;20010;-82
2022/02/04 06:35:26;;;;;;;5.38;3.30;;;7.10;99.90;;;;;;6103120;23;20017;-83
2022/02/04 06:37:51;;;;;;;5.90;3.40;;;7.10;99.90;;;;;;6125844;23;20438;-82
2022/02/04 06:40:17;;;;;;;4.80;2.85;;;7.20;99.90;;;;;;6126408;23;20017;-83
2022/02/04 06:42:42;;;;;;;3.63;2.17;;;7.10;99.90;;;;;;6126560;23;20190;-82
2022/02/04 06:45:08;;;;;;;5.18;2.33;;;7.10;99.90;;;;;;6150808;23;20014;-83
2022/02/04 06:47:35;;;;;;;3.70;1.80;;;7.10;99.90;;;;;;6150974;23;20001;-83
2022/02/04 06:50:01;;;;;;;3.13;1.75;;;7.20;99.90;;;;;;6153074;23;20006;-83
2022/02/04 06:52:26;;;;;;;7.10;2.95;;;7.20;99.90;;;;;;6151634;23;20009;-87
2022/02/04 06:54:52;;;;;;;5.43;2.65;;;7.20;99.90;;;;;;6151352;23;20116;-83
2022/02/04 06:57:18;;;;;;;4.32;2.40;;;7.20;99.90;;;;;;6126655;23;20013;-83
2022/02/04 06:59:46;;;;;;;3.22;1.90;;;7.20;99.90;;;;;;6125355;23;20025;-84
2022/02/04 07:02:12;;;;;;;5.53;2.13;;;7.20;99.90;;;;;;6127187;23;20016;-85
2022/02/04 07:04:37;;;;;;;4.07;2.30;;;7.20;99.90;;;;;;6102322;23;20014;-83
2022/02/04 07:07:04;;;;;;;5.88;2.38;;;7.30;99.90;;;;;;6126615;23;20389;-84
2022/02/04 07:19:51;;;;;;;3.35;1.50;;;7.30;99.90;;;;;;6127981;23;20022;-82
2022/02/04 07:22:20;;;;;;;2.83;1.65;;;7.30;99.90;;;;;;6128447;23;20001;-83
2022/02/04 07:24:48;;;;;;;2.72;1.15;;;7.30;99.90;;;;;;6127867;23;20014;-83
2022/02/04 07:27:14;;;;;;;3.22;1.58;;;7.30;99.90;;;;;;6103961;23;20064;-80
2022/02/04 07:29:42;;;;;;;3.72;1.48;;;7.40;99.90;;;;;;6127418;23;20001;-81
2022/02/04 07:32:15;;;;;;;4.28;1.30;;;7.40;99.90;;;;;;6103474;23;20049;-83
2022/02/04 07:35:00;;;;;;;2.75;1.17;;;7.40;99.90;;;;;;6103495;23;20265;-85
2022/02/04 07:42:59;;;;;;;2.38;1.15;;;7.40;99.90;;;;;;6131874;23;20058;-84
2022/02/04 07:45:25;;;;;;;3.45;1.83;;;7.30;99.90;;;;;;6128205;23;20013;-84
2022/02/04 07:47:51;;;;;;;3.08;2.00;;;7.30;99.90;;;;;;6127527;23;20431;-83
2022/02/04 07:50:21;;;;;;;2.85;1.33;;;7.40;99.90;;;;;;6103059;23;20009;-84
2022/02/04 07:52:47;;;;;;;3.80;1.53;;;7.30;99.90;;;;;;6152729;23;20041;-83
2022/02/04 07:55:13;;;;;;;3.45;1.83;;;7.30;99.90;;;;;;6127984;23;20380;-83
2022/02/04 07:57:40;;;;;;;3.20;1.17;;;7.40;99.90;;;;;;6102524;23;20048;-82
2022/02/04 08:00:09;;;;;;;1.63;0.70;;;7.30;99.90;;;;;;6102994;23;20022;-82
2022/02/04 08:02:41;;;;;;;2.30;0.90;;;7.30;99.90;;;;;;6129106;23;20017;-86
2022/02/04 08:05:10;;;;;;;3.75;1.52;;;7.30;99.90;;;;;;6103088;23;20044;-82
2022/02/04 08:07:49;;;;;;;2.97;1.75;;;7.30;99.90;;;;;;6153153;23;20005;-82
2022/02/04 08:10:39;;;;;;;2.70;1.83;;;7.30;99.90;;;;;;6128020;23;20005;-82
2022/02/04 08:16:23;;;;;;;3.97;1.65;;;7.30;99.90;;;;;;6127081;23;20494;-83
2022/02/04 08:21:23;;;;;;;3.13;1.17;;;7.30;99.90;;;;;;6127657;23;20022;-81
2022/02/04 08:51:38;;;;;;;4.28;2.92;;;7.50;99.90;;;;;;6038442;23;20014;-83
2022/02/04 08:54:13;;;;;;;4.53;2.50;;;7.50;99.90;;;;;;6037807;23;20413;-83
2022/02/04 08:59:17;;;;;;;5.22;2.92;;;7.50;99.90;;;;;;6038232;23;20014;-86
2022/02/04 09:01:50;;;;;;;4.40;2.70;;;7.50;99.90;;;;;;6014169;23;20015;-82
2022/02/04 09:04:19;;;;;;;5.50;2.97;;;7.50;99.90;;;;;;6014631;23;20015;-82
2022/02/04 09:06:51;;;;;;;7.45;3.92;;;7.60;99.90;;;;;;6014258;23;20535;-82
2022/02/04 09:12:21;;;;;;;4.05;2.50;;;7.60;99.90;;;;;;6037045;23;20097;-84
2022/02/04 09:18:01;;;;;;;4.80;2.90;;;7.70;99.90;;;;;;6089510;23;20032;-83
2022/02/04 09:23:11;;;;;;;4.20;3.03;;;7.80;99.90;;;;;;6100129;23;20010;-84
2022/02/04 09:25:39;;;;;;;4.10;3.15;;;7.80;99.90;;;;;;6126276;23;20324;-85
2022/02/04 09:28:05;;;;;;;5.68;3.60;;;7.90;99.90;;;;;;6101008;23;20393;-87
2022/02/04 09:30:30;;;;;;;5.43;3.30;;;7.90;99.90;;;;;;6102426;23;20041;-84
2022/02/04 09:32:56;;;;;;;4.60;3.72;;;7.90;99.90;;;;;;6102788;23;20063;-85
2022/02/04 09:35:24;;;;;;;6.22;4.35;;;7.90;99.90;;;;;;6102509;23;20009;-84
2022/02/04 09:37:51;;;;;;;6.40;3.70;;;7.90;99.90;;;;;;6126420;23;20136;-86
2022/02/04 09:40:17;;;;;;;4.13;3.10;;;7.90;99.90;;;;;;6101784;23;20129;-86
2022/02/04 09:42:45;;;;;;;4.18;3.50;;;7.80;99.90;;;;;;6102364;23;20371;-86
2022/02/04 09:45:14;;;;;;;5.72;3.17;;;7.70;99.90;;;;;;6102237;23;20319;-84
2022/02/04 09:47:42;;;;;;;4.63;4.03;;;7.80;99.90;;;;;;6102070;23;20308;-84
2022/02/04 09:50:14;;;;;;;4.88;3.63;;;7.70;99.90;;;;;;6102818;23;20063;-83
2022/02/04 10:09:33;;;;;;;5.45;3.70;;;8.00;99.90;;;;;;6126233;23;20048;-82
2022/02/04 10:17:27;;;;;;;5.35;3.88;;;8.10;99.90;;;;;;6152772;23;20005;-88
2022/02/04 10:19:57;;;;;;;4.55;3.20;;;8.10;99.90;;;;;;6102560;23;20017;-86
2022/02/04 10:22:26;;;;;;;5.45;4.75;;;8.10;99.90;;;;;;6102147;23;20010;-85
2022/02/04 10:25:01;;;;;;;5.80;4.15;;;8.00;99.90;;;;;;6101984;23;20013;-84
2022/02/04 10:27:33;;;;;;;6.82;3.45;;;8.00;99.90;;;;;;6126953;23;19998;-86
2022/02/04 10:30:06;;;;;;;2.80;2.20;;;8.00;99.90;;;;;;6102050;23;20009;-83
2022/02/04 10:32:35;;;;;;;2.88;2.38;;;8.10;99.90;;;;;;6102294;23;20088;-82
2022/02/04 10:35:05;;;;;;;3.35;2.88;;;8.20;99.90;;;;;;6126724;23;20088;-83
2022/02/04 10:37:33;;;;;;;3.83;2.47;;;8.10;99.90;;;;;;6101606;23;20338;-84
2022/02/04 10:40:07;;;;;;;4.55;3.42;;;8.00;99.90;;;;;;6102266;23;20029;-83
2022/02/04 10:42:56;;;;;;;2.83;2.40;;;7.80;99.90;;;;;;6126630;23;20013;-85
2022/02/04 10:45:50;;;;;;;4.38;2.85;;;7.80;99.90;;;;;;6102426;23;20014;-85
2022/02/04 10:48:36;;;;;;;3.03;1.98;;;7.80;99.90;;;;;;6102312;23;20006;-87
2022/02/04 10:51:35;;;;;;;2.97;1.90;;;7.70;99.90;;;;;;6103852;23;20009;-86
2022/02/04 11:02:18;;;;;;;3.25;1.90;;;7.90;99.90;;;;;;6093327;23;20011;-84
2022/02/04 11:10:26;;;;;;;2.67;1.42;;;8.00;99.90;;;;;;6045298;23;20015;-85
2022/02/04 11:35:09;;;;;;;2.50;1.55;;;8.10;99.90;;;;;;6152403;23;20017;-86
2022/02/04 11:54:56;;;;;;;2.10;0.93;;;8.30;99.90;;;;;;6152612;23;20032;-83
2022/02/04 11:57:26;;;;;;;3.00;1.70;;;8.30;99.90;;;;;;6152732;23;20013;-83
2022/02/04 12:00:20;;;;;;;2.63;1.23;;;8.40;99.90;;;;;;6127059;23;20029;-84
2022/02/04 12:02:51;;;;;;;2.40;0.80;;;8.50;99.90;;;;;;6154658;23;20019;-87
2022/02/04 12:05:16;;;;;;;2.45;1.08;;;8.70;99.90;;;;;;6152276;23;20009;-86
2022/02/04 12:08:14;;;;;;;2.17;0.95;;;8.70;99.90;;;;;;6128404;23;20009;-85
2022/02/04 12:10:42;;;;;;;1.80;0.95;;;8.70;99.90;;;;;;6152268;23;20443;-85
2022/02/04 12:13:10;;;;;;;1.60;0.88;;;8.80;99.90;;;;;;6152491;23;20006;-83
2022/02/04 12:15:47;;;;;;;2.10;0.98;;;9.00;99.90;;;;;;6151985;23;20009;-87
2022/02/04 12:18:44;;;;;;;1.80;0.70;;;9.00;99.90;;;;;;6126929;23;20099;-88
2022/02/04 12:21:16;;;;;;;1.65;0.68;;;9.10;99.90;;;;;;6152104;23;20045;-83
2022/02/04 12:23:46;;;;;;;1.50;0.60;;;9.10;99.90;;;;;;6128038;23;20006;-89
2022/02/04 12:26:13;;;;;;;1.73;0.70;;;9.00;99.90;;;;;;6152792;23;20017;-87
2022/02/04 12:29:02;;;;;;;1.63;0.80;;;9.10;99.90;;;;;;6153248;23;20249;-86
2022/02/04 12:31:30;;;;;;;2.65;1.15;;;8.90;99.90;;;;;;6152453;23;20009;-84
2022/02/04 12:34:03;;;;;;;2.13;1.00;;;8.90;99.90;;;;;;6152318;23;20076;-83
2022/02/04 12:36:35;;;;;;;2.92;1.15;;;8.80;99.90;;;;;;6152290;23;20039;-83
2022/02/04 12:39:04;;;;;;;2.33;1.10;;;8.90;99.90;;;;;;6127258;23;20009;-83
2022/02/04 12:41:43;;;;;;;1.70;0.73;;;8.90;99.90;;;;;;6151388;23;20017;-82
2022/02/04 12:44:14;;;;;;;1.40;0.70;;;8.80;99.90;;;;;;6152019;23;20013;-83
2022/02/04 12:46:48;;;;;;;1.60;0.95;;;8.80;99.90;;;;;;6126424;23;20249;-83
2022/02/04 12:49:17;;;;;;;1.65;0.70;;;8.80;99.90;;;;;;6151588;23;20088;-83
2022/02/04 12:52:03;;;;;;;2.30;1.00;;;8.80;99.90;;;;;;6153432;23;20001;-82
2022/02/04 12:54:44;;;;;;;2.25;1.05;;;8.80;99.90;;;;;;6126603;23;20535;-85
2022/02/04 13:08:11;;;;;;;2.22;0.60;;;8.80;99.90;;;;;;6151472;23;20462;-83
2022/02/04 13:10:37;;;;;;;1.77;0.70;;;8.80;99.90;;;;;;6151818;23;20033;-82
2022/02/04 13:13:10;;;;;;;1.70;0.68;;;8.80;99.90;;;;;;6126708;23;20028;-85
2022/02/04 13:15:38;;;;;;;1.73;0.60;;;8.80;99.90;;;;;;6126351;23;20006;-84
2022/02/04 13:18:14;;;;;;;2.08;0.60;;;8.90;99.90;;;;;;6127014;23;20442;-83
2022/02/04 13:20:43;;;;;;;2.15;0.77;;;8.80;99.90;;;;;;6127229;23;20018;-83
2022/02/04 13:23:16;;;;;;;1.55;0.70;;;8.90;99.90;;;;;;6127265;23;20009;-83
2022/02/04 13:25:46;;;;;;;2.28;0.60;;;8.70;99.90;;;;;;6150938;23;20096;-82
2022/02/04 13:28:14;;;;;;;;;;;8.70;99.90;;;;;;6127258;23;20033;-81
2022/02/04 13:30:59;;;;;;;2.08;0.52;;;8.70;99.90;;;;;;6151169;23;19905;-82
2022/02/04 13:33:31;;;;;;;1.85;0.93;;;8.60;99.90;;;;;;6151748;23;20013;-83
2022/02/04 13:36:28;;;;;;;3.50;0.70;;;8.70;99.90;;;;;;6153530;23;20001;-81
2022/02/04 13:39:07;;;;;;;2.58;0.50;;;8.60;99.90;;;;;;6151238;23;20021;-81
2022/02/04 13:42:08;;;;;;;1.20;0.50;;;8.60;99.90;;;;;;6151045;23;20021;-82
2022/02/04 13:47:01;;;;;;;2.13;0.80;;;8.60;99.90;;;;;;6151705;23;20009;-82
2022/02/04 13:50:05;;;;;;;1.67;0.60;;;8.60;99.90;;;;;;6150984;23;20005;-81
2022/02/04 13:52:37;;;;;;;2.08;0.88;;;8.60;99.90;;;;;;6146833;23;20013;-83
2022/02/04 13:55:27;;;;;;;1.35;0.52;;;8.60;99.90;;;;;;6126228;23;20101;-82
2022/02/04 13:58:33;;;;;;;2.35;0.75;;;8.50;99.90;;;;;;6105905;23;20510;-83
2022/02/04 14:01:09;;;;;;;2.70;0.88;;;8.40;99.90;;;;;;6126560;23;20020;-83
2022/02/04 14:03:41;;;;;;;3.80;1.58;;;8.30;99.90;;;;;;6151630;23;20092;-85
2022/02/04 14:06:18;;;;;;;3.65;1.55;;;8.20;99.90;;;;;;6126907;23;20015;-84
2022/02/04 14:09:00;;;;;;;3.85;1.30;;;8.20;99.90;;;;;;6126260;23;20033;-84
2022/02/04 14:11:30;;;;;;;2.15;0.80;;;8.20;99.90;;;;;;6151341;23;20013;-83
2022/02/04 14:13:58;;;;;;;2.10;0.90;;;8.10;99.90;;;;;;6126159;23;20012;-83
2022/02/04 14:16:24;;;;;;;3.28;1.48;;;8.00;99.90;;;;;;6126333;23;20013;-83
2022/02/04 14:18:51;;;;;;;2.75;1.08;;;8.00;99.90;;;;;;6150268;23;20375;-84
2022/02/04 14:21:20;;;;;;;3.33;1.50;;;7.90;99.90;;;;;;6151282;23;20017;-86
2022/02/04 14:23:52;;;;;;;3.03;1.10;;;7.80;99.90;;;;;;6125902;23;20358;-82
2022/02/04 14:26:29;;;;;;;3.83;1.45;;;7.80;99.90;;;;;;6126334;23;20016;-83
2022/02/04 14:29:06;;;;;;;3.58;1.42;;;7.80;99.90;;;;;;6150261;23;20004;-84
2022/02/04 14:31:39;;;;;;;3.75;1.98;;;7.80;99.90;;;;;;6151319;23;20006;-83
2022/02/04 14:37:06;;;;;;;2.13;1.10;;;7.70;99.90;;;;;;6151333;23;20498;-82
2022/02/04 14:51:44;;;;;;;3.95;1.23;;;7.50;99.90;;;;;;6150767;23;20088;-82
2022/02/04 14:58:46;;;;;;;5.15;2.30;;;7.50;99.90;;;;;;6151789;23;20025;-83
2022/02/04 15:01:31;;;;;;;3.17;1.77;;;7.50;99.90;;;;;;6126611;23;20018;-86
2022/02/04 15:04:07;;;;;;;3.78;1.63;;;7.50;99.90;;;;;;6151994;23;20001;-86
2022/02/04 15:06:37;;;;;;;4.65;2.47;;;7.50;99.90;;;;;;6101922;23;20010;-85
2022/02/04 15:09:07;;;;;;;5.40;3.15;;;7.40;99.90;;;;;;6102936;23;20423;-90
2022/02/04 15:11:35;;;;;;;2.17;0.38;;;6.90;99.90;;;;;;6126181;23;20009;-88
2022/02/04 15:14:06;;;;;;;1.23;0.30;;;5.30;99.90;;;;;;6127318;23;20005;-87
2022/02/04 15:16:33;;;;;;;2.03;0.20;;;5.40;99.90;;;;;;6102429;23;20013;-88
2022/02/04 15:18:59;;;;;;;0.28;0.08;;;5.40;99.90;;;;;;6102548;23;20017;-83
2022/02/04 15:21:25;;;;;;;0.43;0.10;;;5.40;99.90;;;;;;6153022;23;20018;-90
2022/02/04 15:23:52;;;;;;;1.25;0.10;;;5.30;99.90;;;;;;6102635;23;20005;-85
2022/02/04 15:26:24;;;;;;;0.20;0.00;;;5.10;99.90;;;;;;6102490;23;20342;-90
2022/02/04 15:34:02;;;;;;;0.00;0.00;;;4.40;99.90;;;;;;6127772;23;20009;-86
2022/02/04 15:36:33;;;;;;;0.05;0.00;;;4.20;99.90;;;;;;6104121;23;20005;-85
2022/02/04 15:39:00;;;;;;;0.85;0.10;;;4.20;99.90;;;;;;6104344;23;20009;-85
2022/02/04 15:41:27;;;;;;;0.40;0.10;;;4.20;99.90;;;;;;6128319;23;20033;-85
2022/02/04 15:43:57;;;;;;;0.63;0.13;;;4.00;99.90;;;;;;6129005;23;20016;-87
2022/02/04 15:49:20;;;;;;;1.13;0.20;;;3.70;99.90;;;;;;6128422;23;20045;-93
2022/02/04 15:57:30;;;;;;;1.63;0.17;;;3.80;99.90;;;;;;6155043;23;20001;-91
2022/02/04 16:04:54;;;;;;;1.45;0.20;;;3.90;99.90;;;;;;6154886;23;20063;-90
2022/02/04 16:07:22;;;;;;;0.50;0.20;;;3.80;99.90;;;;;;6129275;23;20450;-87
2022/02/04 16:09:55;;;;;;;0.80;0.20;;;3.90;99.90;;;;;;6128478;23;20024;-89
2022/02/04 16:12:32;;;;;;;0.93;0.20;;;3.80;99.90;;;;;;6155821;23;20014;-87
2022/02/04 16:15:11;;;;;;;1.88;0.20;;;3.90;99.90;;;;;;6129388;23;20009;-91
2022/02/04 16:17:41;;;;;;;0.68;0.20;;;3.90;99.90;;;;;;6153708;23;20263;-91
2022/02/04 16:22:55;;;;;;;0.40;0.20;;;3.90;99.90;;;;;;6153641;23;20006;-89
2022/02/04 16:30:47;;;;;;;1.00;0.28;;;3.90;99.90;;;;;;6153281;23;20009;-90
2022/02/04 16:33:13;;;;;;;2.25;0.30;;;4.00;99.90;;;;;;6154074;23;20462;-88
2022/02/04 16:35:39;;;;;;;0.60;0.30;;;4.00;99.90;;;;;;6128455;23;20010;-86
2022/02/04 16:38:05;;;;;;;0.65;0.30;;;4.00;99.90;;;;;;6154397;23;20009;-86
2022/02/04 16:40:33;;;;;;;0.60;0.30;;;4.00;99.90;;;;;;6152905;23;20476;-85
2022/02/04 16:43:00;;;;;;;0.73;0.20;;;4.00;99.90;;;;;;6129001;23;20032;-89
2022/02/04 16:45:26;;;;;;;0.68;0.30;;;4.00;99.90;;;;;;6104462;23;20041;-90
2022/02/04 16:47:52;;;;;;;1.30;0.25;;;4.00;99.90;;;;;;6153982;23;20013;-86
2022/02/04 16:50:21;;;;;;;0.50;0.28;;;4.00;99.90;;;;;;6129220;23;20009;-86
2022/02/04 16:52:51;;;;;;;0.47;0.20;;;3.90;99.90;;;;;;6128838;23;20092;-89
2022/02/04 16:55:19;;;;;;;1.52;0.20;;;3.90;99.90;;;;;;6126679;23;20100;-89
2022/02/04 16:57:46;;;;;;;0.70;0.20;;;3.90;99.90;;;;;;6151823;23;20178;-85
2022/02/04 17:00:45;;;;;;;0.43;0.20;;;3.90;99.90;;;;;;6152939;23;20447;-87
2022/02/04 17:03:10;;;;;;;1.95;0.20;;;3.90;99.90;;;;;;6150336;23;20008;-89
2022/02/04 17:08:12;;;;;;;1.17;0.30;;;3.90;99.90;;;;;;6152871;23;20032;-87
2022/02/04 17:10:44;;;;;;;1.25;0.20;;;3.90;99.90;;;;;;6151514;23;20006;-86
2022/02/04 17:13:11;;;;;;;1.58;0.20;;;3.80;99.90;;;;;;6127070;23;20079;-86
2022/02/04 17:15:38;;;;;;;1.52;0.30;;;3.80;99.90;;;;;;6126882;23;20006;-88
2022/02/04 17:18:06;;;;;;;0.80;0.20;;;3.80;99.90;;;;;;6151374;23;20005;-87
2022/02/04 17:20:32;;;;;;;2.10;0.43;;;3.80;99.90;;;;;;6151850;23;20021;-87
2022/02/04 17:23:01;;;;;;;0.82;0.20;;;3.80;99.90;;;;;;6126824;23;20478;-86
2022/02/04 17:25:28;;;;;;;1.35;0.10;;;3.80;99.90;;;;;;6127247;23;20010;-87
2022/02/04 17:27:58;;;;;;;1.05;0.20;;;3.80;99.90;;;;;;6153024;23;20005;-86
2022/02/04 17:30:24;;;;;;;2.25;0.20;;;3.80;99.90;;;;;;6153494;23;20016;-88
2022/02/04 17:32:51;;;;;;;2.42;0.20;;;3.70;99.90;;;;;;6126822;23;20017;-89
2022/02/04 17:35:19;;;;;;;1.15;0.13;;;3.70;99.90;;;;;;6126908;23;20020;-88
2022/02/04 17:37:45;;;;;;;1.77;0.20;;;3.70;99.90;;;;;;6127083;23;20005;-86
2022/02/04 17:40:14;;;;;;;1.45;0.20;;;3.60;99.90;;;;;;6151522;23;20025;-84
2022/02/04 17:42:41;;;;;;;2.85;0.30;;;3.60;99.90;;;;;;6151858;23;20001;-88
2022/02/04 17:45:21;;;;;;;1.27;0.20;;;3.70;99.90;;;;;;6151741;23;20093;-87
2022/02/04 17:47:54;;;;;;;1.20;0.40;;;3.70;99.90;;;;;;6148675;23;20084;-87
2022/02/04 17:50:27;;;;;;;2.00;0.50;;;3.70;99.90;;;;;;6126325;23;20010;-85
2022/02/04 17:53:00;;;;;;;2.22;0.50;;;3.70;99.90;;;;;;6150487;23;20010;-87
2022/02/04 17:55:30;;;;;;;2.47;0.60;;;3.70;99.90;;;;;;6083035;23;1050921;-85
2022/02/04 17:58:08;;;;;;;1.80;0.60;;;3.60;99.90;;;;;;6128355;23;20018;-86
2022/02/04 18:06:04;;;;;;;4.07;0.50;;;3.60;99.90;;;;;;6151575;23;20351;-88
2022/02/04 18:08:30;;;;;;;1.98;0.30;;;3.50;99.90;;;;;;6127708;23;20049;-85
2022/02/04 18:11:00;;;;;;;3.05;0.30;;;3.50;99.90;;;;;;6152368;23;20009;-87
2022/02/04 18:13:26;;;;;;;0.75;0.30;;;3.60;99.90;;;;;;6128476;23;20012;-88
2022/02/04 18:15:51;;;;;;;2.17;0.30;;;3.50;99.90;;;;;;6152894;23;20017;-85
2022/02/04 18:18:17;;;;;;;4.35;0.30;;;3.60;99.90;;;;;;6127558;23;20005;-88
2022/02/04 18:20:44;;;;;;;3.90;0.30;;;3.50;99.90;;;;;;6151484;23;20454;-86
2022/02/04 18:23:16;;;;;;;1.23;0.30;;;3.50;99.90;;;;;;6128234;23;20057;-85
2022/02/04 18:25:43;;;;;;;2.28;0.30;;;3.50;99.90;;;;;;6127797;23;20021;-85
2022/02/04 18:28:10;;;;;;;1.98;0.20;;;3.50;99.90;;;;;;6152072;23;20005;-87
2022/02/04 18:30:35;;;;;;;2.13;0.20;;;3.50;99.90;;;;;;6127705;23;20016;-85
2022/02/04 18:33:03;;;;;;;6.55;0.35;;;3.50;99.90;;;;;;6127774;23;20009;-87
2022/02/04 18:35:30;;;;;;;3.42;0.50;;;3.50;99.90;;;;;;6126379;23;20014;-85
2022/02/04 18:46:01;;;;;;;5.07;0.50;;;3.50;99.90;;;;;;6153664;23;20013;-87
2022/02/04 18:48:30;;;;;;;4.43;0.32;;;3.50;99.90;;;;;;6127380;23;20017;-86
2022/02/04 18:58:28;;;;;;;3.42;0.35;;;3.50;99.90;;;;;;6104454;23;20010;-86
2022/02/04 19:00:55;;;;;;;4.22;0.32;;;3.40;99.90;;;;;;6127666;23;20017;-86
2022/02/04 19:03:26;;;;;;;6.45;0.50;;;3.40;99.90;;;;;;6153796;23;20220;-86
2022/02/04 19:06:13;;;;;;;2.75;0.43;;;3.40;99.90;;;;;;6102966;23;20079;-84
2022/02/04 19:08:45;;;;;;;5.95;0.50;;;3.60;99.90;;;;;;6153118;23;20002;-85
2022/02/04 19:11:15;;;;;;;4.93;0.47;;;3.60;99.90;;;;;;6129118;23;20009;-84
2022/02/04 19:13:47;;;;;;;5.53;0.40;;;3.60;99.90;;;;;;6104276;23;20052;-85
2022/02/04 19:16:38;;;;;;;6.70;0.50;;;3.60;99.90;;;;;;6129520;23;20013;-87
2022/02/04 19:19:15;;;;;;;9.00;0.70;;;3.60;99.90;;;;;;6128710;23;20009;-85
2022/02/04 19:21:52;;;;;;;4.82;0.60;;;3.60;99.90;;;;;;6128979;23;20014;-85
2022/02/04 19:24:19;;;;;;;8.30;0.70;;;3.60;99.90;;;;;;6129663;23;20013;-85
2022/02/04 19:26:45;;;;;;;7.55;0.70;;;3.60;99.90;;;;;;6104358;23;20013;-84
2022/02/04 19:29:10;;;;;;;4.22;0.57;;;3.60;99.90;;;;;;6128660;23;20009;-84
2022/02/04 19:31:50;;;;;;;7.55;0.70;;;3.60;99.90;;;;;;6103954;23;20014;-85